createdAt,value
2022-08-17T00:00:43.957Z,99.90
2022-08-17T00:03:22.431Z,99.90
2022-08-17T00:05:54.375Z,99.90
2022-08-17T00:08:24.716Z,99.90
2022-08-17T00:10:53.834Z,99.90
2022-08-17T00:13:25.754Z,99.90
2022-08-17T00:15:57.864Z,99.90
2022-08-17T00:19:01.792Z,99.90
2022-08-17T00:21:23.840Z,99.90
2022-08-17T00:23:56.221Z,99.90
2022-08-17T00:26:43.464Z,99.90
2022-08-17T00:29:16.452Z,99.90
2022-08-17T00:31:48.669Z,99.90
2022-08-17T00:34:19.214Z,99.90
2022-08-17T00:36:48.733Z,99.90
2022-08-17T00:39:16.851Z,99.90
2022-08-17T00:41:45.007Z,99.90
2022-08-17T00:44:13.297Z,99.90
2022-08-17T00:46:43.602Z,99.90
2022-08-17T00:49:15.773Z,99.90
2022-08-17T00:51:47.430Z,99.90
2022-08-17T00:54:23.471Z,99.90
2022-08-17T00:56:55.083Z,99.90
2022-08-17T00:59:30.865Z,99.90
2022-08-17T01:02:00.046Z,99.90
2022-08-17T01:04:32.922Z,99.90
2022-08-17T01:07:02.771Z,99.90
2022-08-17T01:09:33.402Z,99.90
2022-08-17T01:12:01.904Z,99.90
2022-08-17T01:14:33.209Z,99.90
2022-08-17T01:17:03.984Z,99.90
2022-08-17T01:19:35.831Z,99.90
2022-08-17T01:22:18.647Z,99.90
2022-08-17T01:24:51.123Z,99.90
2022-08-17T01:27:21.051Z,99.90
2022-08-17T01:29:52.545Z,99.90
2022-08-17T01:32:21.460Z,99.90
2022-08-17T01:34:50.915Z,99.90
2022-08-17T01:37:22.306Z,99.90
2022-08-17T01:39:55.128Z,99.90
2022-08-17T01:42:27.653Z,99.90
2022-08-17T01:45:02.960Z,99.90
2022-08-17T01:47:36.003Z,99.90
2022-08-17T01:50:10.688Z,99.90
2022-08-17T01:52:43.605Z,99.90
2022-08-17T01:55:12.392Z,99.90
2022-08-17T01:57:45.475Z,99.90
2022-08-17T02:00:15.169Z,99.90
2022-08-17T02:02:45.927Z,99.90
2022-08-17T02:05:14.939Z,99.90
2022-08-17T02:07:59.433Z,99.90
2022-08-17T02:10:33.750Z,99.90
2022-08-17T02:13:03.340Z,99.90
2022-08-17T02:15:34.737Z,99.90
2022-08-17T02:18:03.145Z,99.90
2022-08-17T02:20:41.934Z,99.90
2022-08-17T02:23:14.412Z,99.90
2022-08-17T02:25:44.917Z,99.90
2022-08-17T02:28:16.592Z,99.90
2022-08-17T02:30:59.554Z,99.90
2022-08-17T02:33:42.110Z,99.90
2022-08-17T02:36:14.767Z,99.90
2022-08-17T02:38:44.639Z,99.90
2022-08-17T02:41:15.481Z,99.90
2022-08-17T02:43:46.655Z,99.90
2022-08-17T02:46:14.861Z,99.90
2022-08-17T02:48:43.013Z,99.90
2022-08-17T02:51:11.330Z,99.90
2022-08-17T02:53:42.069Z,99.90
2022-08-17T02:56:11.568Z,99.90
2022-08-17T02:58:42.043Z,99.90
2022-08-17T03:01:12.667Z,99.90
2022-08-17T03:03:41.502Z,99.90
2022-08-17T03:06:12.209Z,99.90
2022-08-17T03:08:42.640Z,99.90
2022-08-17T03:11:14.532Z,99.90
2022-08-17T03:13:42.724Z,99.90
2022-08-17T03:16:11.024Z,99.90
2022-08-17T03:18:39.257Z,99.90
2022-08-17T03:21:09.181Z,99.90
2022-08-17T03:23:41.068Z,99.90
2022-08-17T03:26:15.308Z,99.90
2022-08-17T03:28:45.273Z,99.90
2022-08-17T03:31:13.380Z,99.90
2022-08-17T03:33:45.980Z,99.90
2022-08-17T03:36:17.084Z,99.90
2022-08-17T03:38:45.296Z,99.90
2022-08-17T03:41:13.969Z,99.90
2022-08-17T03:43:45.903Z,99.90
2022-08-17T03:46:35.063Z,99.90
2022-08-17T03:49:23.853Z,99.90
2022-08-17T03:52:10.142Z,99.90
2022-08-17T03:54:58.642Z,99.90
2022-08-17T03:57:27.286Z,99.90
2022-08-17T03:59:59.792Z,99.90
2022-08-17T04:02:30.840Z,99.90
2022-08-17T04:04:59.739Z,99.90
2022-08-17T04:07:32.642Z,99.90
2022-08-17T04:10:01.451Z,99.90
2022-08-17T04:12:31.371Z,99.90
2022-08-17T04:15:03.565Z,99.90
2022-08-17T04:17:31.790Z,99.90
2022-08-17T04:19:59.996Z,99.90
2022-08-17T04:22:34.253Z,99.90
2022-08-17T04:25:07.701Z,99.90
2022-08-17T04:27:38.555Z,99.90
2022-08-17T04:30:09.699Z,99.90
2022-08-17T04:33:04.099Z,99.90
2022-08-17T04:35:36.887Z,99.90
2022-08-17T04:38:05.318Z,99.90
2022-08-17T04:40:53.708Z,99.90
2022-08-17T04:43:23.668Z,99.90
2022-08-17T04:45:56.833Z,99.90
2022-08-17T04:48:35.625Z,99.90
2022-08-17T04:51:10.637Z,99.90
2022-08-17T04:53:40.397Z,99.90
2022-08-17T04:56:11.787Z,99.90
2022-08-17T04:58:45.856Z,99.90
2022-08-17T05:01:23.839Z,99.90
2022-08-17T05:03:53.686Z,99.90
2022-08-17T05:06:24.701Z,99.90
2022-08-17T05:08:53.048Z,99.90
2022-08-17T05:11:22.191Z,99.90
2022-08-17T05:13:53.441Z,99.90
2022-08-17T05:16:24.618Z,99.90
2022-08-17T05:18:53.057Z,99.90
2022-08-17T05:21:23.077Z,99.90
2022-08-17T05:23:56.193Z,99.90
2022-08-17T05:26:26.913Z,99.90
2022-08-17T05:29:02.505Z,99.90
2022-08-17T05:31:32.656Z,99.90
2022-08-17T05:34:00.934Z,99.90
2022-08-17T05:36:41.933Z,99.90
2022-08-17T05:39:16.215Z,99.90
2022-08-17T05:41:48.984Z,99.90
2022-08-17T05:44:19.433Z,99.90
2022-08-17T05:46:53.232Z,99.90
2022-08-17T05:49:28.356Z,99.90
2022-08-17T05:52:12.615Z,99.90
2022-08-17T05:54:56.005Z,99.90
2022-08-17T05:57:47.623Z,99.90
2022-08-17T06:00:30.360Z,99.90
2022-08-17T06:03:19.169Z,99.90
2022-08-17T06:06:15.339Z,99.90
2022-08-17T06:08:51.623Z,99.90
2022-08-17T06:11:26.672Z,99.90
2022-08-17T06:14:20.015Z,99.90
2022-08-17T06:16:56.743Z,99.90
2022-08-17T06:19:34.512Z,99.90
2022-08-17T06:22:05.789Z,99.90
2022-08-17T06:24:38.903Z,99.90
2022-08-17T06:27:13.235Z,99.90
2022-08-17T06:29:50.873Z,99.90
2022-08-17T06:32:21.386Z,99.90
2022-08-17T06:34:51.115Z,99.90
2022-08-17T06:37:37.210Z,99.90
2022-08-17T06:40:32.007Z,99.90
2022-08-17T06:43:14.261Z,99.90
2022-08-17T06:45:49.548Z,99.90
2022-08-17T06:48:25.109Z,99.90
2022-08-17T06:51:00.000Z,99.90
2022-08-17T06:53:37.831Z,99.90
2022-08-17T06:56:11.528Z,99.90
2022-08-17T06:58:43.340Z,99.90
2022-08-17T07:01:14.846Z,99.90
2022-08-17T07:03:53.558Z,99.90
2022-08-17T07:06:28.115Z,99.90
2022-08-17T07:09:02.592Z,99.90
2022-08-17T07:11:35.060Z,99.90
2022-08-17T07:14:17.481Z,99.90
2022-08-17T07:16:49.283Z,99.90
2022-08-17T07:19:23.569Z,99.90
2022-08-17T07:22:01.615Z,99.90
2022-08-17T07:24:39.322Z,99.90
2022-08-17T07:27:20.888Z,99.90
2022-08-17T07:29:54.699Z,99.90
2022-08-17T07:32:27.680Z,99.90
2022-08-17T07:35:12.973Z,99.90
2022-08-17T07:37:51.007Z,99.90
2022-08-17T07:40:29.685Z,99.90
2022-08-17T07:43:23.887Z,99.90
2022-08-17T07:46:23.079Z,99.90
2022-08-17T07:48:56.741Z,99.90
2022-08-17T07:51:31.227Z,99.90
2022-08-17T07:54:14.556Z,99.90
2022-08-17T07:56:46.953Z,99.90
2022-08-17T07:59:23.219Z,99.90
2022-08-17T08:02:06.146Z,99.90
2022-08-17T08:04:59.377Z,99.90
2022-08-17T08:07:32.056Z,99.90
2022-08-17T08:10:10.891Z,99.90
2022-08-17T08:12:44.407Z,99.90
2022-08-17T08:15:19.524Z,99.90
2022-08-17T08:17:52.149Z,99.90
2022-08-17T08:20:51.236Z,99.40
2022-08-17T08:23:29.546Z,99.70
2022-08-17T08:26:13.140Z,98.10
2022-08-17T08:28:52.486Z,97.40
2022-08-17T08:31:27.152Z,95.40
2022-08-17T08:34:06.523Z,96.20
2022-08-17T08:36:56.627Z,96.30
2022-08-17T08:39:44.881Z,95.70
2022-08-17T08:42:23.574Z,95.90
2022-08-17T08:45:04.756Z,96.80
2022-08-17T08:47:53.244Z,95.90
2022-08-17T08:50:37.956Z,94.90
2022-08-17T08:53:21.344Z,94.60
2022-08-17T08:55:55.597Z,93.50
2022-08-17T08:58:41.350Z,93.00
2022-08-17T09:01:19.102Z,92.40
2022-08-17T09:04:24.108Z,92.10
2022-08-17T09:07:07.245Z,91.10
2022-08-17T09:09:48.984Z,90.50
2022-08-17T09:12:25.542Z,90.90
2022-08-17T09:15:05.007Z,91.20
2022-08-17T09:17:40.937Z,89.60
2022-08-17T09:20:27.609Z,89.40
2022-08-17T09:23:03.955Z,88.50
2022-08-17T09:25:45.679Z,86.50
2022-08-17T09:28:20.245Z,85.90
2022-08-17T09:30:53.488Z,84.30
2022-08-17T09:33:26.204Z,84.30
2022-08-17T09:36:00.216Z,85.20
2022-08-17T09:38:33.210Z,85.20
2022-08-17T09:41:10.864Z,84.60
2022-08-17T09:43:45.752Z,82.60
2022-08-17T09:46:19.617Z,80.90
2022-08-17T09:48:58.039Z,81.30
2022-08-17T09:51:33.495Z,78.40
2022-08-17T09:54:34.832Z,84.70
2022-08-17T09:57:25.862Z,82.10
2022-08-17T10:00:00.247Z,78.50
2022-08-17T10:02:56.052Z,78.50
2022-08-17T10:05:30.544Z,77.70
2022-08-17T10:08:08.625Z,79.20
2022-08-17T10:10:43.111Z,79.00
2022-08-17T10:13:32.413Z,75.60
2022-08-17T10:16:15.293Z,74.70
2022-08-17T10:18:56.793Z,75.80
2022-08-17T10:21:44.075Z,76.80
2022-08-17T10:24:34.353Z,77.00
2022-08-17T10:27:05.284Z,73.60
2022-08-17T10:29:48.578Z,74.20
2022-08-17T10:32:26.531Z,72.40
2022-08-17T10:35:25.989Z,70.60
2022-08-17T10:38:30.304Z,70.80
2022-08-17T10:41:08.032Z,72.50
2022-08-17T10:43:55.840Z,70.70
2022-08-17T10:46:53.980Z,70.30
2022-08-17T10:49:29.438Z,72.10
2022-08-17T10:52:01.504Z,70.20
2022-08-17T10:55:16.652Z,67.90
2022-08-17T10:57:50.201Z,67.00
2022-08-17T11:00:54.957Z,67.00
2022-08-17T11:03:27.604Z,67.90
2022-08-17T11:06:06.876Z,67.70
2022-08-17T11:08:59.355Z,69.10
2022-08-17T11:11:54.399Z,67.70
2022-08-17T11:14:49.669Z,68.10
2022-08-17T11:17:41.509Z,68.50
2022-08-17T11:20:34.738Z,67.80
2022-08-17T11:23:37.546Z,68.20
2022-08-17T11:26:26.101Z,68.70
2022-08-17T11:29:01.405Z,69.10
2022-08-17T11:31:38.624Z,69.80
2022-08-17T11:34:15.111Z,69.00
2022-08-17T11:37:04.687Z,68.50
2022-08-17T11:39:46.519Z,67.40
2022-08-17T11:42:31.411Z,68.90
2022-08-17T11:45:03.680Z,68.40
2022-08-17T11:48:23.900Z,68.80
2022-08-17T11:51:08.489Z,69.30
2022-08-17T11:57:00.129Z,68.40
2022-08-17T12:00:03.147Z,68.40
2022-08-17T12:02:48.080Z,66.70
2022-08-17T12:05:33.180Z,66.10
2022-08-17T12:08:11.797Z,67.20
2022-08-17T12:10:55.335Z,68.80
2022-08-17T12:13:27.323Z,68.70
2022-08-17T12:16:03.503Z,67.80
2022-08-17T12:18:37.604Z,67.80
2022-08-17T12:21:18.898Z,66.80
2022-08-17T12:23:56.658Z,67.00
2022-08-17T12:26:31.337Z,68.20
2022-08-17T12:29:02.770Z,67.90
2022-08-17T12:31:37.721Z,67.80
2022-08-17T12:34:06.435Z,69.20
2022-08-17T12:36:36.353Z,68.70
2022-08-17T12:39:12.872Z,69.40
2022-08-17T12:41:46.980Z,69.10
2022-08-17T12:44:19.178Z,69.80
2022-08-17T12:46:53.739Z,70.60
2022-08-17T12:49:26.385Z,71.50
2022-08-17T12:52:06.026Z,72.80
2022-08-17T12:54:46.845Z,84.50
2022-08-17T12:57:18.038Z,91.20
2022-08-17T12:59:50.133Z,94.80
2022-08-17T13:02:29.880Z,99.10
2022-08-17T13:05:01.419Z,99.90
2022-08-17T13:07:37.284Z,99.90
2022-08-17T13:10:08.169Z,99.90
2022-08-17T13:12:37.358Z,99.90
2022-08-17T13:15:08.424Z,99.90
2022-08-17T13:17:40.544Z,99.90
2022-08-17T13:20:16.034Z,99.90
2022-08-17T13:22:45.128Z,99.90
2022-08-17T13:25:17.547Z,99.90
2022-08-17T13:27:50.844Z,99.90
2022-08-17T13:30:23.861Z,99.90
2022-08-17T13:32:57.557Z,99.90
2022-08-17T13:35:45.880Z,99.90
2022-08-17T13:38:40.531Z,99.90
2022-08-17T13:41:08.889Z,99.90
2022-08-17T13:43:45.680Z,99.90
2022-08-17T13:46:21.869Z,99.90
2022-08-17T13:49:06.218Z,99.90
2022-08-17T13:51:43.851Z,99.90
2022-08-17T13:54:26.110Z,99.90
2022-08-17T13:56:58.653Z,99.90
2022-08-17T13:59:54.348Z,99.90
2022-08-17T14:02:27.644Z,99.90
2022-08-17T14:04:59.029Z,99.90
2022-08-17T14:07:33.836Z,99.90
2022-08-17T14:10:10.393Z,99.90
2022-08-17T14:12:40.748Z,99.90
2022-08-17T14:15:10.329Z,99.90
2022-08-17T14:17:41.215Z,99.90
2022-08-17T14:20:13.580Z,99.90
2022-08-17T14:22:45.865Z,99.90
2022-08-17T14:25:19.796Z,99.90
2022-08-17T14:27:52.674Z,99.90
2022-08-17T14:30:29.647Z,99.90
2022-08-17T14:32:58.474Z,99.90
2022-08-17T14:35:29.337Z,99.90
2022-08-17T14:38:02.083Z,99.90
2022-08-17T14:40:33.407Z,99.90
2022-08-17T14:43:01.654Z,99.90
2022-08-17T14:45:33.148Z,99.90
2022-08-17T14:48:07.725Z,99.90
2022-08-17T14:50:42.569Z,99.90
2022-08-17T14:53:13.677Z,99.90
2022-08-17T14:55:41.963Z,99.90
2022-08-17T14:58:12.838Z,99.90
2022-08-17T15:00:43.679Z,99.90
2022-08-17T15:03:12.581Z,99.90
2022-08-17T15:05:44.260Z,99.90
2022-08-17T15:08:16.553Z,99.90
2022-08-17T15:10:45.013Z,99.90
2022-08-17T15:13:18.758Z,99.90
2022-08-17T15:15:47.446Z,99.90
2022-08-17T15:18:15.823Z,99.10
2022-08-17T15:20:48.611Z,99.30
2022-08-17T15:23:18.979Z,97.70
2022-08-17T15:25:52.482Z,97.40
2022-08-17T15:28:22.745Z,95.40
2022-08-17T15:30:51.366Z,94.80
2022-08-17T15:33:29.160Z,93.30
2022-08-17T15:36:01.279Z,88.00
2022-08-17T15:38:30.247Z,87.20
2022-08-17T15:40:58.670Z,90.20
2022-08-17T15:43:32.413Z,87.10
2022-08-17T15:46:02.614Z,83.30
2022-08-17T15:48:42.089Z,81.90
2022-08-17T15:51:14.820Z,81.90
2022-08-17T15:53:44.941Z,79.20
2022-08-17T15:56:15.355Z,77.30
2022-08-17T15:58:45.160Z,77.20
2022-08-17T16:01:18.432Z,77.40
2022-08-17T16:04:01.472Z,78.30
2022-08-17T16:06:37.012Z,76.40
2022-08-17T16:09:05.391Z,76.30
2022-08-17T16:11:33.635Z,76.70
2022-08-17T16:14:04.949Z,79.60
2022-08-17T16:16:33.983Z,84.80
2022-08-17T16:19:02.324Z,90.80
2022-08-17T16:21:42.765Z,93.60
2022-08-17T16:24:14.852Z,96.30
2022-08-17T16:26:43.715Z,98.40
2022-08-17T16:29:12.040Z,99.80
2022-08-17T16:31:41.782Z,99.90
2022-08-17T16:34:17.603Z,99.90
2022-08-17T16:36:55.044Z,99.90
2022-08-17T16:39:26.891Z,99.90
2022-08-17T16:41:56.070Z,99.90
2022-08-17T16:44:25.728Z,99.90
2022-08-17T16:46:54.146Z,99.90
2022-08-17T16:49:25.756Z,99.90
2022-08-17T16:52:10.116Z,99.90
2022-08-17T16:54:46.718Z,99.90
2022-08-17T16:57:18.424Z,99.90
2022-08-17T16:59:50.327Z,99.90
2022-08-17T17:02:32.379Z,99.90
2022-08-17T17:05:06.729Z,99.90
2022-08-17T17:07:56.456Z,99.90
2022-08-17T17:10:43.530Z,99.90
2022-08-17T17:13:19.086Z,99.90
2022-08-17T17:15:56.140Z,99.90
2022-08-17T17:18:35.331Z,99.90
2022-08-17T17:21:08.374Z,99.90
2022-08-17T17:23:48.306Z,99.90
2022-08-17T17:26:46.368Z,99.90
2022-08-17T17:29:47.808Z,99.90
2022-08-17T17:32:22.556Z,99.90
2022-08-17T17:34:56.194Z,99.90
2022-08-17T17:37:33.398Z,99.90
2022-08-17T17:40:06.146Z,99.90
2022-08-17T17:42:42.815Z,99.90
2022-08-17T17:45:19.849Z,99.90
2022-08-17T17:47:48.531Z,99.90
2022-08-17T17:50:18.892Z,99.90
2022-08-17T17:52:54.255Z,99.90
2022-08-17T17:55:36.548Z,99.90
2022-08-17T17:58:22.971Z,99.90
2022-08-17T18:01:00.299Z,99.90
2022-08-17T18:03:41.026Z,99.90
2022-08-17T18:06:27.673Z,99.90
2022-08-17T18:09:10.648Z,99.90
2022-08-17T18:12:02.584Z,99.90
2022-08-17T18:14:45.260Z,99.90
2022-08-17T18:17:14.263Z,99.90
2022-08-17T18:19:45.221Z,99.90
2022-08-17T18:22:18.211Z,99.90
2022-08-17T18:24:55.764Z,99.90
2022-08-17T18:27:33.383Z,99.90
2022-08-17T18:30:23.209Z,99.90
2022-08-17T18:32:51.554Z,99.90
2022-08-17T18:35:32.862Z,99.90
2022-08-17T18:38:20.431Z,99.90
2022-08-17T18:40:59.595Z,99.90
2022-08-17T18:43:44.275Z,99.90
2022-08-17T18:46:30.144Z,99.90
2022-08-17T18:49:03.234Z,99.90
2022-08-17T18:51:40.761Z,99.90
2022-08-17T18:54:18.554Z,99.90
2022-08-17T18:56:54.683Z,99.90
2022-08-17T18:59:33.929Z,99.90
2022-08-17T19:02:38.607Z,99.90
2022-08-17T19:05:13.603Z,99.90
2022-08-17T19:07:45.514Z,99.90
2022-08-17T19:10:22.560Z,99.90
2022-08-17T19:13:00.272Z,99.90
2022-08-17T19:15:36.739Z,99.90
2022-08-17T19:18:15.707Z,99.90
2022-08-17T19:20:48.712Z,99.90
2022-08-17T19:23:24.005Z,99.90
2022-08-17T19:25:55.163Z,99.90
2022-08-17T19:28:28.880Z,99.90
2022-08-17T19:30:59.403Z,99.90
2022-08-17T19:33:31.336Z,99.90
2022-08-17T19:36:06.904Z,99.90
2022-08-17T19:38:46.458Z,99.90
2022-08-17T19:41:21.720Z,99.90
2022-08-17T19:44:07.896Z,99.90
2022-08-17T19:46:49.876Z,99.90
2022-08-17T19:49:34.469Z,99.90
2022-08-17T19:52:29.192Z,99.90
2022-08-17T19:55:07.419Z,99.90
2022-08-17T19:57:50.092Z,99.90
2022-08-17T20:00:21.106Z,99.90
2022-08-17T20:02:55.056Z,99.90
2022-08-17T20:05:28.504Z,99.90
2022-08-17T20:08:01.894Z,99.90
2022-08-17T20:10:41.685Z,99.90
2022-08-17T20:13:19.106Z,99.90
2022-08-17T20:16:04.920Z,99.90
2022-08-17T20:18:37.791Z,99.90
2022-08-17T20:21:19.747Z,99.90
2022-08-17T20:23:55.090Z,99.90
2022-08-17T20:26:27.496Z,99.90
2022-08-17T20:29:37.220Z,99.90
2022-08-17T20:32:20.140Z,99.90
2022-08-17T20:35:04.114Z,99.90
2022-08-17T20:37:38.203Z,99.90
2022-08-17T20:40:28.516Z,99.90
2022-08-17T20:42:57.800Z,99.90
2022-08-17T20:46:05.789Z,99.90
2022-08-17T20:48:39.723Z,99.90
2022-08-17T20:51:19.779Z,99.90
2022-08-17T20:54:28.841Z,99.90
2022-08-17T20:57:01.448Z,99.90
2022-08-17T21:00:01.253Z,99.90
2022-08-17T21:02:32.280Z,99.90
2022-08-17T21:05:30.352Z,99.90
2022-08-17T21:08:01.878Z,99.90
2022-08-17T21:10:36.675Z,99.90
2022-08-17T21:13:55.077Z,99.90
2022-08-17T21:16:50.285Z,99.90
2022-08-17T21:20:00.527Z,99.90
2022-08-17T21:22:49.463Z,99.90
2022-08-17T21:25:33.407Z,99.90
2022-08-17T21:28:10.058Z,99.90
2022-08-17T21:30:48.033Z,99.90
2022-08-17T21:33:27.083Z,99.90
2022-08-17T21:36:26.190Z,99.90
2022-08-17T21:39:02.528Z,99.90
2022-08-17T21:41:34.806Z,99.90
2022-08-17T21:44:11.980Z,99.90
2022-08-17T21:46:46.494Z,99.90
2022-08-17T21:49:18.204Z,99.90
2022-08-17T21:51:50.386Z,99.90
2022-08-17T21:54:30.831Z,99.90
2022-08-17T21:57:00.473Z,99.90
2022-08-17T21:59:33.096Z,99.90
2022-08-17T22:02:04.086Z,99.90
2022-08-17T22:04:35.086Z,99.90
2022-08-17T22:07:06.001Z,99.90
2022-08-17T22:09:43.044Z,99.90
2022-08-17T22:12:13.760Z,99.90
2022-08-17T22:14:52.755Z,99.90
2022-08-17T22:17:24.205Z,99.90
2022-08-17T22:19:57.770Z,99.90
2022-08-17T22:22:33.305Z,99.90
2022-08-17T22:25:05.807Z,99.90
2022-08-17T22:27:55.843Z,99.90
2022-08-17T22:30:35.164Z,99.90
2022-08-17T22:33:31.278Z,99.90
2022-08-17T22:36:24.579Z,99.90
2022-08-17T22:38:55.475Z,99.90
2022-08-17T22:41:36.753Z,99.90
2022-08-17T22:44:15.411Z,99.90
2022-08-17T22:46:55.243Z,99.90
2022-08-17T22:49:29.145Z,99.90
2022-08-17T22:52:23.436Z,99.90
2022-08-17T22:55:26.395Z,99.90
2022-08-17T22:58:12.228Z,99.90
2022-08-17T23:00:45.818Z,99.90
2022-08-17T23:03:20.344Z,99.90
2022-08-17T23:05:50.147Z,99.90
2022-08-17T23:08:21.350Z,99.90
2022-08-17T23:10:52.075Z,99.90
2022-08-17T23:13:21.287Z,99.90
2022-08-17T23:15:52.016Z,99.90
2022-08-17T23:18:23.469Z,99.90
2022-08-17T23:20:51.823Z,99.90
2022-08-17T23:23:23.589Z,99.90
2022-08-17T23:25:52.087Z,99.90
2022-08-17T23:28:21.436Z,99.90
2022-08-17T23:30:49.704Z,99.90
2022-08-17T23:33:30.938Z,99.90
2022-08-17T23:36:02.253Z,99.90
2022-08-17T23:38:33.063Z,99.90
2022-08-17T23:41:09.532Z,99.90
2022-08-17T23:43:40.477Z,99.90
2022-08-17T23:46:11.971Z,99.90
2022-08-17T23:48:42.143Z,99.90
2022-08-17T23:51:13.381Z,99.90
2022-08-17T23:53:47.295Z,99.90
2022-08-17T23:56:16.162Z,99.90
2022-08-17T23:58:45.103Z,99.90
